Fontana, California
Current Conditions -  °F | °C
As of 8:53 AM on Wednesday 22 Oct 2014 (Local Time) from KONT Reporting Station
Few Clouds Few Clouds  
Wind Chill: 65°   Ceiling: Unl
Heat Index: 65°   Visibility: 8mi
Dew Point: 50°   Wind: 0mph
Humidity: 58%   Direction: NA
Pressure: 29.97"   Gusts: NA
Location:  34.1°N, 117.43°W
Report Text: KONT 221553Z 00000KT 8SM FEW250 18/10 A2997 RMK AO2 SLP138 T01830100
Loading
Personal Weather Stations






























Interactive Weather Map New forecast layout! Learn more

10-Day Weather Forecast

Advertisements
Track Severe Weather on mobile